sensor_id;sensor_type;location;lat;lon;timestamp;P1;durP1;ratioP1;P2;durP2;ratioP2
8349;SDS011;60699;48.946;8.412;2023-02-28T00:01:13;3.40;;;3.10;;
8349;SDS011;60699;48.946;8.412;2023-02-28T00:03:40;3.38;;;3.08;;
8349;SDS011;60699;48.946;8.412;2023-02-28T00:06:08;4.55;;;3.38;;
8349;SDS011;60699;48.946;8.412;2023-02-28T00:08:37;3.60;;;3.30;;
8349;SDS011;60699;48.946;8.412;2023-02-28T00:11:04;3.72;;;3.35;;
8349;SDS011;60699;48.946;8.412;2023-02-28T00:13:32;4.97;;;3.22;;
8349;SDS011;60699;48.946;8.412;2023-02-28T00:16:01;5.25;;;3.70;;
8349;SDS011;60699;48.946;8.412;2023-02-28T00:18:29;3.60;;;3.30;;
8349;SDS011;60699;48.946;8.412;2023-02-28T00:20:56;3.08;;;2.80;;
8349;SDS011;60699;48.946;8.412;2023-02-28T00:23:23;4.05;;;3.00;;
8349;SDS011;60699;48.946;8.412;2023-02-28T00:25:51;3.50;;;3.20;;
8349;SDS011;60699;48.946;8.412;2023-02-28T00:28:18;3.85;;;3.60;;
8349;SDS011;60699;48.946;8.412;2023-02-28T00:30:46;3.42;;;3.22;;
8349;SDS011;60699;48.946;8.412;2023-02-28T00:33:13;3.45;;;3.15;;
8349;SDS011;60699;48.946;8.412;2023-02-28T00:35:40;3.38;;;3.08;;
8349;SDS011;60699;48.946;8.412;2023-02-28T00:38:07;3.45;;;3.25;;
8349;SDS011;60699;48.946;8.412;2023-02-28T00:40:34;3.33;;;3.03;;
8349;SDS011;60699;48.946;8.412;2023-02-28T00:43:02;4.72;;;4.20;;
8349;SDS011;60699;48.946;8.412;2023-02-28T00:45:29;5.00;;;4.60;;
8349;SDS011;60699;48.946;8.412;2023-02-28T00:47:56;4.60;;;3.00;;
8349;SDS011;60699;48.946;8.412;2023-02-28T00:50:24;3.63;;;3.33;;
8349;SDS011;60699;48.946;8.412;2023-02-28T00:52:51;3.65;;;3.35;;
8349;SDS011;60699;48.946;8.412;2023-02-28T00:55:18;3.30;;;3.03;;
8349;SDS011;60699;48.946;8.412;2023-02-28T00:57:45;4.35;;;4.00;;
8349;SDS011;60699;48.946;8.412;2023-02-28T01:00:14;3.58;;;3.10;;
8349;SDS011;60699;48.946;8.412;2023-02-28T01:02:41;6.43;;;3.97;;
8349;SDS011;60699;48.946;8.412;2023-02-28T01:05:08;3.33;;;3.10;;
8349;SDS011;60699;48.946;8.412;2023-02-28T01:07:35;3.28;;;2.97;;
8349;SDS011;60699;48.946;8.412;2023-02-28T01:10:03;3.97;;;3.67;;
8349;SDS011;60699;48.946;8.412;2023-02-28T01:12:30;3.65;;;3.35;;
8349;SDS011;60699;48.946;8.412;2023-02-28T01:14:57;4.65;;;3.80;;
8349;SDS011;60699;48.946;8.412;2023-02-28T01:17:26;4.10;;;3.63;;
8349;SDS011;60699;48.946;8.412;2023-02-28T01:19:53;4.15;;;3.75;;
8349;SDS011;60699;48.946;8.412;2023-02-28T01:22:21;3.20;;;3.00;;
8349;SDS011;60699;48.946;8.412;2023-02-28T01:24:48;3.50;;;3.20;;
8349;SDS011;60699;48.946;8.412;2023-02-28T01:27:15;3.47;;;3.17;;
8349;SDS011;60699;48.946;8.412;2023-02-28T01:29:42;3.75;;;3.55;;
8349;SDS011;60699;48.946;8.412;2023-02-28T01:32:09;3.22;;;3.03;;
8349;SDS011;60699;48.946;8.412;2023-02-28T01:34:38;4.10;;;3.90;;
8349;SDS011;60699;48.946;8.412;2023-02-28T01:37:05;2.97;;;2.78;;
8349;SDS011;60699;48.946;8.412;2023-02-28T01:39:32;6.32;;;3.80;;
8349;SDS011;60699;48.946;8.412;2023-02-28T01:41:59;4.00;;;3.10;;
8349;SDS011;60699;48.946;8.412;2023-02-28T01:47:11;3.83;;;3.53;;
8349;SDS011;60699;48.946;8.412;2023-02-28T01:49:40;3.90;;;3.58;;
8349;SDS011;60699;48.946;8.412;2023-02-28T01:52:07;6.00;;;3.67;;
8349;SDS011;60699;48.946;8.412;2023-02-28T01:54:39;3.78;;;3.50;;
8349;SDS011;60699;48.946;8.412;2023-02-28T01:57:07;5.30;;;3.88;;
8349;SDS011;60699;48.946;8.412;2023-02-28T01:59:36;3.92;;;3.63;;
8349;SDS011;60699;48.946;8.412;2023-02-28T02:02:05;3.70;;;3.40;;
8349;SDS011;60699;48.946;8.412;2023-02-28T02:04:34;4.75;;;4.38;;
8349;SDS011;60699;48.946;8.412;2023-02-28T02:07:04;4.20;;;3.08;;
8349;SDS011;60699;48.946;8.412;2023-02-28T02:09:31;3.22;;;3.00;;
8349;SDS011;60699;48.946;8.412;2023-02-28T02:11:58;3.22;;;2.90;;
8349;SDS011;60699;48.946;8.412;2023-02-28T02:14:42;4.00;;;3.70;;
8349;SDS011;60699;48.946;8.412;2023-02-28T02:17:14;3.55;;;3.22;;
8349;SDS011;60699;48.946;8.412;2023-02-28T02:20:06;4.97;;;3.75;;
8349;SDS011;60699;48.946;8.412;2023-02-28T02:22:49;3.75;;;3.35;;
8349;SDS011;60699;48.946;8.412;2023-02-28T02:25:19;3.20;;;2.90;;
8349;SDS011;60699;48.946;8.412;2023-02-28T02:30:43;3.00;;;2.75;;
8349;SDS011;60699;48.946;8.412;2023-02-28T02:33:16;4.03;;;3.72;;
8349;SDS011;60699;48.946;8.412;2023-02-28T02:35:52;3.92;;;3.63;;
8349;SDS011;60699;48.946;8.412;2023-02-28T02:38:24;3.83;;;3.53;;
8349;SDS011;60699;48.946;8.412;2023-02-28T02:40:56;4.32;;;3.35;;
8349;SDS011;60699;48.946;8.412;2023-02-28T02:43:25;5.30;;;4.80;;
8349;SDS011;60699;48.946;8.412;2023-02-28T02:45:54;5.03;;;3.50;;
8349;SDS011;60699;48.946;8.412;2023-02-28T02:48:24;7.68;;;4.05;;
8349;SDS011;60699;48.946;8.412;2023-02-28T02:50:54;4.68;;;4.28;;
8349;SDS011;60699;48.946;8.412;2023-02-28T02:53:23;8.32;;;3.47;;
8349;SDS011;60699;48.946;8.412;2023-02-28T02:55:50;4.40;;;4.10;;
8349;SDS011;60699;48.946;8.412;2023-02-28T02:58:20;3.33;;;3.13;;
8349;SDS011;60699;48.946;8.412;2023-02-28T03:00:48;4.00;;;3.15;;
8349;SDS011;60699;48.946;8.412;2023-02-28T03:03:18;4.93;;;4.00;;
8349;SDS011;60699;48.946;8.412;2023-02-28T03:05:55;3.08;;;2.88;;
8349;SDS011;60699;48.946;8.412;2023-02-28T03:08:22;4.35;;;4.03;;
8349;SDS011;60699;48.946;8.412;2023-02-28T03:10:50;4.63;;;3.70;;
8349;SDS011;60699;48.946;8.412;2023-02-28T03:13:34;3.97;;;3.67;;
8349;SDS011;60699;48.946;8.412;2023-02-28T03:16:11;4.15;;;3.63;;
8349;SDS011;60699;48.946;8.412;2023-02-28T03:18:44;3.72;;;3.22;;
8349;SDS011;60699;48.946;8.412;2023-02-28T03:21:18;4.25;;;3.85;;
8349;SDS011;60699;48.946;8.412;2023-02-28T03:23:51;3.95;;;3.65;;
8349;SDS011;60699;48.946;8.412;2023-02-28T03:26:21;4.63;;;4.18;;
8349;SDS011;60699;48.946;8.412;2023-02-28T03:28:51;3.28;;;3.08;;
8349;SDS011;60699;48.946;8.412;2023-02-28T03:31:22;5.47;;;4.10;;
8349;SDS011;60699;48.946;8.412;2023-02-28T03:33:54;4.68;;;4.32;;
8349;SDS011;60699;48.946;8.412;2023-02-28T03:36:25;4.50;;;4.20;;
8349;SDS011;60699;48.946;8.412;2023-02-28T03:38:54;3.72;;;3.35;;
8349;SDS011;60699;48.946;8.412;2023-02-28T03:41:23;3.05;;;2.88;;
8349;SDS011;60699;48.946;8.412;2023-02-28T03:43:53;3.75;;;3.45;;
8349;SDS011;60699;48.946;8.412;2023-02-28T03:46:21;4.18;;;3.50;;
8349;SDS011;60699;48.946;8.412;2023-02-28T03:48:51;6.35;;;3.90;;
8349;SDS011;60699;48.946;8.412;2023-02-28T03:51:20;9.35;;;4.53;;
8349;SDS011;60699;48.946;8.412;2023-02-28T03:53:52;4.03;;;3.72;;
8349;SDS011;60699;48.946;8.412;2023-02-28T03:56:20;4.45;;;4.03;;
8349;SDS011;60699;48.946;8.412;2023-02-28T03:58:51;4.53;;;4.00;;
8349;SDS011;60699;48.946;8.412;2023-02-28T04:01:21;4.32;;;3.75;;
8349;SDS011;60699;48.946;8.412;2023-02-28T04:03:50;5.10;;;4.78;;
8349;SDS011;60699;48.946;8.412;2023-02-28T04:06:18;4.45;;;4.15;;
8349;SDS011;60699;48.946;8.412;2023-02-28T04:08:46;4.10;;;3.60;;
8349;SDS011;60699;48.946;8.412;2023-02-28T04:11:17;3.78;;;3.47;;
8349;SDS011;60699;48.946;8.412;2023-02-28T04:13:45;3.85;;;3.58;;
8349;SDS011;60699;48.946;8.412;2023-02-28T04:16:13;5.97;;;4.35;;
8349;SDS011;60699;48.946;8.412;2023-02-28T04:18:40;4.05;;;3.65;;
8349;SDS011;60699;48.946;8.412;2023-02-28T04:21:08;4.95;;;4.43;;
8349;SDS011;60699;48.946;8.412;2023-02-28T04:23:35;4.18;;;3.88;;
8349;SDS011;60699;48.946;8.412;2023-02-28T04:26:03;6.13;;;3.80;;
8349;SDS011;60699;48.946;8.412;2023-02-28T04:28:32;6.13;;;4.60;;
8349;SDS011;60699;48.946;8.412;2023-02-28T04:31:00;6.05;;;4.90;;
8349;SDS011;60699;48.946;8.412;2023-02-28T04:33:27;5.63;;;4.25;;
8349;SDS011;60699;48.946;8.412;2023-02-28T04:35:58;4.80;;;3.83;;
8349;SDS011;60699;48.946;8.412;2023-02-28T04:38:25;4.72;;;4.32;;
8349;SDS011;60699;48.946;8.412;2023-02-28T04:40:52;5.55;;;4.32;;
8349;SDS011;60699;48.946;8.412;2023-02-28T04:43:19;4.90;;;4.47;;
8349;SDS011;60699;48.946;8.412;2023-02-28T04:45:48;5.05;;;4.40;;
8349;SDS011;60699;48.946;8.412;2023-02-28T04:48:15;4.65;;;3.58;;
8349;SDS011;60699;48.946;8.412;2023-02-28T04:50:42;4.35;;;4.05;;
8349;SDS011;60699;48.946;8.412;2023-02-28T04:53:09;4.65;;;4.30;;
8349;SDS011;60699;48.946;8.412;2023-02-28T04:55:36;4.53;;;4.13;;
8349;SDS011;60699;48.946;8.412;2023-02-28T04:58:05;5.38;;;4.45;;
8349;SDS011;60699;48.946;8.412;2023-02-28T05:00:32;5.10;;;4.60;;
8349;SDS011;60699;48.946;8.412;2023-02-28T05:03:00;4.95;;;4.00;;
8349;SDS011;60699;48.946;8.412;2023-02-28T05:05:27;4.70;;;4.05;;
8349;SDS011;60699;48.946;8.412;2023-02-28T05:07:54;5.57;;;4.93;;
8349;SDS011;60699;48.946;8.412;2023-02-28T05:10:21;7.03;;;5.10;;
8349;SDS011;60699;48.946;8.412;2023-02-28T05:12:48;6.20;;;4.75;;
8349;SDS011;60699;48.946;8.412;2023-02-28T05:15:17;5.53;;;5.00;;
8349;SDS011;60699;48.946;8.412;2023-02-28T05:17:44;4.70;;;4.40;;
8349;SDS011;60699;48.946;8.412;2023-02-28T05:20:13;5.53;;;4.25;;
8349;SDS011;60699;48.946;8.412;2023-02-28T05:22:40;4.95;;;4.28;;
8349;SDS011;60699;48.946;8.412;2023-02-28T05:25:08;7.47;;;4.47;;
8349;SDS011;60699;48.946;8.412;2023-02-28T05:27:37;5.15;;;4.57;;
8349;SDS011;60699;48.946;8.412;2023-02-28T05:30:05;4.78;;;4.15;;
8349;SDS011;60699;48.946;8.412;2023-02-28T05:32:35;5.18;;;4.30;;
8349;SDS011;60699;48.946;8.412;2023-02-28T05:35:02;5.90;;;5.32;;
8349;SDS011;60699;48.946;8.412;2023-02-28T05:37:30;5.03;;;3.90;;
8349;SDS011;60699;48.946;8.412;2023-02-28T05:39:57;6.53;;;4.15;;
8349;SDS011;60699;48.946;8.412;2023-02-28T05:42:25;6.22;;;4.70;;
8349;SDS011;60699;48.946;8.412;2023-02-28T05:44:52;7.03;;;4.45;;
8349;SDS011;60699;48.946;8.412;2023-02-28T05:47:19;5.05;;;4.57;;
8349;SDS011;60699;48.946;8.412;2023-02-28T05:49:46;6.60;;;4.63;;
8349;SDS011;60699;48.946;8.412;2023-02-28T05:52:13;4.75;;;4.35;;
8349;SDS011;60699;48.946;8.412;2023-02-28T05:54:41;9.95;;;5.38;;
8349;SDS011;60699;48.946;8.412;2023-02-28T05:57:08;4.43;;;4.03;;
8349;SDS011;60699;48.946;8.412;2023-02-28T05:59:35;5.60;;;5.03;;
8349;SDS011;60699;48.946;8.412;2023-02-28T06:02:04;4.78;;;4.15;;
8349;SDS011;60699;48.946;8.412;2023-02-28T06:04:32;5.47;;;4.75;;
8349;SDS011;60699;48.946;8.412;2023-02-28T06:06:59;5.90;;;4.63;;
8349;SDS011;60699;48.946;8.412;2023-02-28T06:09:26;4.97;;;4.05;;
8349;SDS011;60699;48.946;8.412;2023-02-28T06:11:55;5.15;;;4.70;;
8349;SDS011;60699;48.946;8.412;2023-02-28T06:14:23;4.65;;;4.07;;
8349;SDS011;60699;48.946;8.412;2023-02-28T06:16:51;9.10;;;4.93;;
8349;SDS011;60699;48.946;8.412;2023-02-28T06:19:18;5.30;;;4.38;;
8349;SDS011;60699;48.946;8.412;2023-02-28T06:21:47;4.80;;;4.00;;
8349;SDS011;60699;48.946;8.412;2023-02-28T06:24:15;8.40;;;5.22;;
8349;SDS011;60699;48.946;8.412;2023-02-28T06:26:42;6.50;;;4.78;;
8349;SDS011;60699;48.946;8.412;2023-02-28T06:29:11;7.40;;;5.20;;
8349;SDS011;60699;48.946;8.412;2023-02-28T06:31:42;4.30;;;3.90;;
8349;SDS011;60699;48.946;8.412;2023-02-28T06:34:09;5.13;;;4.60;;
8349;SDS011;60699;48.946;8.412;2023-02-28T06:36:37;6.78;;;5.22;;
8349;SDS011;60699;48.946;8.412;2023-02-28T06:39:04;6.30;;;3.88;;
8349;SDS011;60699;48.946;8.412;2023-02-28T06:41:31;6.55;;;5.25;;
8349;SDS011;60699;48.946;8.412;2023-02-28T06:44:03;6.15;;;4.75;;
8349;SDS011;60699;48.946;8.412;2023-02-28T06:46:32;6.47;;;4.70;;
8349;SDS011;60699;48.946;8.412;2023-02-28T06:48:59;7.65;;;4.85;;
8349;SDS011;60699;48.946;8.412;2023-02-28T06:51:26;6.30;;;4.13;;
8349;SDS011;60699;48.946;8.412;2023-02-28T06:53:53;5.70;;;5.10;;
8349;SDS011;60699;48.946;8.412;2023-02-28T06:56:20;4.05;;;3.75;;
8349;SDS011;60699;48.946;8.412;2023-02-28T06:58:47;6.10;;;4.90;;
8349;SDS011;60699;48.946;8.412;2023-02-28T07:01:14;5.22;;;4.45;;
8349;SDS011;60699;48.946;8.412;2023-02-28T07:03:42;6.65;;;5.53;;
8349;SDS011;60699;48.946;8.412;2023-02-28T07:06:09;4.10;;;3.67;;
8349;SDS011;60699;48.946;8.412;2023-02-28T07:08:36;4.45;;;3.90;;
8349;SDS011;60699;48.946;8.412;2023-02-28T07:11:05;4.65;;;4.25;;
8349;SDS011;60699;48.946;8.412;2023-02-28T07:13:32;8.63;;;6.38;;
8349;SDS011;60699;48.946;8.412;2023-02-28T07:16:00;5.93;;;4.07;;
8349;SDS011;60699;48.946;8.412;2023-02-28T07:18:27;5.00;;;3.70;;
8349;SDS011;60699;48.946;8.412;2023-02-28T07:20:55;6.05;;;5.00;;
8349;SDS011;60699;48.946;8.412;2023-02-28T07:23:23;5.15;;;4.05;;
8349;SDS011;60699;48.946;8.412;2023-02-28T07:25:50;6.00;;;4.97;;
8349;SDS011;60699;48.946;8.412;2023-02-28T07:28:18;6.03;;;4.70;;
8349;SDS011;60699;48.946;8.412;2023-02-28T07:30:45;6.38;;;4.80;;
8349;SDS011;60699;48.946;8.412;2023-02-28T07:33:13;9.40;;;5.63;;
8349;SDS011;60699;48.946;8.412;2023-02-28T07:35:40;5.88;;;5.28;;
8349;SDS011;60699;48.946;8.412;2023-02-28T07:38:08;9.35;;;4.95;;
8349;SDS011;60699;48.946;8.412;2023-02-28T07:40:35;6.03;;;4.70;;
8349;SDS011;60699;48.946;8.412;2023-02-28T07:43:03;5.50;;;5.00;;
8349;SDS011;60699;48.946;8.412;2023-02-28T07:45:30;4.78;;;4.38;;
8349;SDS011;60699;48.946;8.412;2023-02-28T07:47:59;5.97;;;5.03;;
8349;SDS011;60699;48.946;8.412;2023-02-28T07:50:26;6.03;;;4.85;;
8349;SDS011;60699;48.946;8.412;2023-02-28T07:52:55;8.25;;;5.57;;
8349;SDS011;60699;48.946;8.412;2023-02-28T07:55:24;4.85;;;4.25;;
8349;SDS011;60699;48.946;8.412;2023-02-28T07:57:51;6.35;;;5.75;;
8349;SDS011;60699;48.946;8.412;2023-02-28T08:00:18;6.03;;;5.43;;
8349;SDS011;60699;48.946;8.412;2023-02-28T08:02:46;5.15;;;4.75;;
8349;SDS011;60699;48.946;8.412;2023-02-28T08:05:13;7.32;;;6.20;;
8349;SDS011;60699;48.946;8.412;2023-02-28T08:07:40;5.68;;;4.40;;
8349;SDS011;60699;48.946;8.412;2023-02-28T08:10:07;8.85;;;6.60;;
8349;SDS011;60699;48.946;8.412;2023-02-28T08:12:36;6.50;;;5.32;;
8349;SDS011;60699;48.946;8.412;2023-02-28T08:15:04;7.13;;;5.63;;
8349;SDS011;60699;48.946;8.412;2023-02-28T08:17:31;4.82;;;4.43;;
8349;SDS011;60699;48.946;8.412;2023-02-28T08:19:58;5.10;;;4.75;;
8349;SDS011;60699;48.946;8.412;2023-02-28T08:22:25;8.65;;;5.25;;
8349;SDS011;60699;48.946;8.412;2023-02-28T08:24:52;6.85;;;5.30;;
8349;SDS011;60699;48.946;8.412;2023-02-28T08:27:19;6.22;;;4.82;;
8349;SDS011;60699;48.946;8.412;2023-02-28T08:29:48;4.90;;;4.40;;
8349;SDS011;60699;48.946;8.412;2023-02-28T08:32:15;6.47;;;4.88;;
8349;SDS011;60699;48.946;8.412;2023-02-28T08:34:42;7.90;;;5.68;;
8349;SDS011;60699;48.946;8.412;2023-02-28T08:37:09;8.73;;;5.45;;
8349;SDS011;60699;48.946;8.412;2023-02-28T08:39:36;6.10;;;4.85;;
8349;SDS011;60699;48.946;8.412;2023-02-28T08:42:03;4.57;;;4.25;;
8349;SDS011;60699;48.946;8.412;2023-02-28T08:44:30;5.95;;;5.07;;
8349;SDS011;60699;48.946;8.412;2023-02-28T08:46:59;6.35;;;5.38;;
8349;SDS011;60699;48.946;8.412;2023-02-28T08:49:26;7.50;;;5.32;;
8349;SDS011;60699;48.946;8.412;2023-02-28T08:51:53;10.65;;;6.53;;
8349;SDS011;60699;48.946;8.412;2023-02-28T08:54:22;7.90;;;5.95;;
8349;SDS011;60699;48.946;8.412;2023-02-28T08:56:49;6.63;;;5.82;;
8349;SDS011;60699;48.946;8.412;2023-02-28T08:59:16;5.75;;;5.00;;
8349;SDS011;60699;48.946;8.412;2023-02-28T09:01:43;7.07;;;5.90;;
8349;SDS011;60699;48.946;8.412;2023-02-28T09:04:11;6.43;;;5.78;;
8349;SDS011;60699;48.946;8.412;2023-02-28T09:06:38;7.53;;;5.30;;
8349;SDS011;60699;48.946;8.412;2023-02-28T09:09:05;7.82;;;5.57;;
8349;SDS011;60699;48.946;8.412;2023-02-28T09:11:33;6.78;;;5.68;;
8349;SDS011;60699;48.946;8.412;2023-02-28T09:14:00;8.00;;;5.82;;
8349;SDS011;60699;48.946;8.412;2023-02-28T09:16:28;9.57;;;6.40;;
8349;SDS011;60699;48.946;8.412;2023-02-28T09:18:55;7.13;;;5.10;;
8349;SDS011;60699;48.946;8.412;2023-02-28T09:21:24;6.55;;;5.78;;
8349;SDS011;60699;48.946;8.412;2023-02-28T09:23:51;6.63;;;5.70;;
8349;SDS011;60699;48.946;8.412;2023-02-28T09:26:19;6.47;;;5.85;;
8349;SDS011;60699;48.946;8.412;2023-02-28T09:28:47;7.03;;;6.35;;
8349;SDS011;60699;48.946;8.412;2023-02-28T09:31:14;6.93;;;5.38;;
8349;SDS011;60699;48.946;8.412;2023-02-28T09:33:42;7.57;;;5.65;;
8349;SDS011;60699;48.946;8.412;2023-02-28T09:36:09;6.57;;;5.80;;
8349;SDS011;60699;48.946;8.412;2023-02-28T09:38:37;7.95;;;6.50;;
8349;SDS011;60699;48.946;8.412;2023-02-28T09:41:09;6.68;;;5.90;;
8349;SDS011;60699;48.946;8.412;2023-02-28T09:43:38;11.93;;;7.20;;
8349;SDS011;60699;48.946;8.412;2023-02-28T09:46:08;12.68;;;6.65;;
8349;SDS011;60699;48.946;8.412;2023-02-28T09:48:40;8.80;;;6.93;;
8349;SDS011;60699;48.946;8.412;2023-02-28T09:51:11;8.65;;;6.20;;
8349;SDS011;60699;48.946;8.412;2023-02-28T09:53:40;7.13;;;5.68;;
8349;SDS011;60699;48.946;8.412;2023-02-28T09:56:08;6.65;;;6.05;;
8349;SDS011;60699;48.946;8.412;2023-02-28T09:58:37;8.10;;;6.70;;
8349;SDS011;60699;48.946;8.412;2023-02-28T10:01:06;10.63;;;7.20;;
8349;SDS011;60699;48.946;8.412;2023-02-28T10:03:38;14.80;;;7.28;;
8349;SDS011;60699;48.946;8.412;2023-02-28T10:06:07;10.13;;;8.15;;
8349;SDS011;60699;48.946;8.412;2023-02-28T10:08:36;13.00;;;5.80;;
8349;SDS011;60699;48.946;8.412;2023-02-28T10:11:09;9.55;;;7.65;;
8349;SDS011;60699;48.946;8.412;2023-02-28T10:13:39;9.77;;;6.60;;
8349;SDS011;60699;48.946;8.412;2023-02-28T10:16:08;6.13;;;5.50;;
8349;SDS011;60699;48.946;8.412;2023-02-28T10:18:39;8.90;;;6.65;;
8349;SDS011;60699;48.946;8.412;2023-02-28T10:21:08;6.00;;;5.40;;
8349;SDS011;60699;48.946;8.412;2023-02-28T10:23:41;6.95;;;6.25;;
8349;SDS011;60699;48.946;8.412;2023-02-28T10:26:12;6.80;;;5.32;;
8349;SDS011;60699;48.946;8.412;2023-02-28T10:28:40;9.25;;;6.45;;
8349;SDS011;60699;48.946;8.412;2023-02-28T10:31:08;7.45;;;5.88;;
8349;SDS011;60699;48.946;8.412;2023-02-28T10:33:36;11.65;;;8.13;;
8349;SDS011;60699;48.946;8.412;2023-02-28T10:36:04;6.30;;;5.70;;
8349;SDS011;60699;48.946;8.412;2023-02-28T10:38:33;10.38;;;7.88;;
8349;SDS011;60699;48.946;8.412;2023-02-28T10:41:04;9.88;;;6.85;;
8349;SDS011;60699;48.946;8.412;2023-02-28T10:43:32;9.43;;;6.55;;
8349;SDS011;60699;48.946;8.412;2023-02-28T10:46:01;8.27;;;6.40;;
8349;SDS011;60699;48.946;8.412;2023-02-28T10:48:30;7.93;;;7.13;;
8349;SDS011;60699;48.946;8.412;2023-02-28T10:50:58;14.25;;;7.45;;
8349;SDS011;60699;48.946;8.412;2023-02-28T10:53:29;9.65;;;7.32;;
8349;SDS011;60699;48.946;8.412;2023-02-28T10:55:58;8.50;;;6.07;;
8349;SDS011;60699;48.946;8.412;2023-02-28T10:58:27;7.93;;;6.25;;
8349;SDS011;60699;48.946;8.412;2023-02-28T11:00:55;9.15;;;6.95;;
8349;SDS011;60699;48.946;8.412;2023-02-28T11:03:24;10.23;;;7.63;;
8349;SDS011;60699;48.946;8.412;2023-02-28T11:05:51;9.05;;;6.90;;
8349;SDS011;60699;48.946;8.412;2023-02-28T11:08:18;8.70;;;6.80;;
8349;SDS011;60699;48.946;8.412;2023-02-28T11:10:45;9.80;;;6.53;;
8349;SDS011;60699;48.946;8.412;2023-02-28T11:13:16;9.15;;;7.72;;
8349;SDS011;60699;48.946;8.412;2023-02-28T11:15:48;8.15;;;6.55;;
8349;SDS011;60699;48.946;8.412;2023-02-28T11:18:23;11.27;;;7.45;;
8349;SDS011;60699;48.946;8.412;2023-02-28T11:20:52;11.00;;;6.78;;
8349;SDS011;60699;48.946;8.412;2023-02-28T11:23:19;12.07;;;7.75;;
8349;SDS011;60699;48.946;8.412;2023-02-28T11:25:47;10.15;;;7.82;;
8349;SDS011;60699;48.946;8.412;2023-02-28T11:28:25;8.23;;;7.20;;
8349;SDS011;60699;48.946;8.412;2023-02-28T11:31:00;15.82;;;8.40;;
8349;SDS011;60699;48.946;8.412;2023-02-28T11:33:29;10.00;;;7.80;;
8349;SDS011;60699;48.946;8.412;2023-02-28T11:35:57;12.27;;;7.57;;
8349;SDS011;60699;48.946;8.412;2023-02-28T11:38:25;12.38;;;7.53;;
8349;SDS011;60699;48.946;8.412;2023-02-28T11:40:57;10.27;;;6.60;;
8349;SDS011;60699;48.946;8.412;2023-02-28T11:43:30;8.23;;;7.03;;
8349;SDS011;60699;48.946;8.412;2023-02-28T11:46:05;10.35;;;7.50;;
8349;SDS011;60699;48.946;8.412;2023-02-28T11:48:37;9.00;;;7.53;;
8349;SDS011;60699;48.946;8.412;2023-02-28T11:51:10;8.05;;;7.28;;
8349;SDS011;60699;48.946;8.412;2023-02-28T11:53:51;9.23;;;8.00;;
8349;SDS011;60699;48.946;8.412;2023-02-28T11:56:24;8.73;;;7.82;;
8349;SDS011;60699;48.946;8.412;2023-02-28T11:58:55;11.30;;;7.65;;
8349;SDS011;60699;48.946;8.412;2023-02-28T12:01:28;11.77;;;9.32;;
8349;SDS011;60699;48.946;8.412;2023-02-28T12:04:14;11.02;;;7.90;;
8349;SDS011;60699;48.946;8.412;2023-02-28T12:06:44;11.57;;;8.85;;
8349;SDS011;60699;48.946;8.412;2023-02-28T12:09:17;9.90;;;7.88;;
8349;SDS011;60699;48.946;8.412;2023-02-28T12:11:49;8.95;;;7.75;;
8349;SDS011;60699;48.946;8.412;2023-02-28T12:14:25;10.60;;;8.13;;
8349;SDS011;60699;48.946;8.412;2023-02-28T12:16:59;11.95;;;8.57;;
8349;SDS011;60699;48.946;8.412;2023-02-28T12:19:30;10.05;;;8.02;;
8349;SDS011;60699;48.946;8.412;2023-02-28T12:24:50;9.45;;;6.57;;
8349;SDS011;60699;48.946;8.412;2023-02-28T12:27:23;6.97;;;6.30;;
8349;SDS011;60699;48.946;8.412;2023-02-28T12:29:52;7.78;;;6.90;;
8349;SDS011;60699;48.946;8.412;2023-02-28T12:32:22;11.18;;;7.80;;
8349;SDS011;60699;48.946;8.412;2023-02-28T12:34:54;7.65;;;6.82;;
8349;SDS011;60699;48.946;8.412;2023-02-28T12:37:24;8.68;;;7.07;;
8349;SDS011;60699;48.946;8.412;2023-02-28T12:39:55;12.63;;;8.15;;
8349;SDS011;60699;48.946;8.412;2023-02-28T12:42:24;10.95;;;8.88;;
8349;SDS011;60699;48.946;8.412;2023-02-28T12:44:54;9.18;;;7.07;;
8349;SDS011;60699;48.946;8.412;2023-02-28T12:47:23;11.10;;;7.95;;
8349;SDS011;60699;48.946;8.412;2023-02-28T12:49:51;14.45;;;7.63;;
8349;SDS011;60699;48.946;8.412;2023-02-28T12:52:22;10.45;;;7.95;;
8349;SDS011;60699;48.946;8.412;2023-02-28T12:54:51;26.85;;;8.75;;
8349;SDS011;60699;48.946;8.412;2023-02-28T12:57:22;12.20;;;7.38;;
8349;SDS011;60699;48.946;8.412;2023-02-28T12:59:50;9.40;;;6.75;;
8349;SDS011;60699;48.946;8.412;2023-02-28T13:08:17;8.20;;;7.35;;
8349;SDS011;60699;48.946;8.412;2023-02-28T13:10:48;9.25;;;6.85;;
8349;SDS011;60699;48.946;8.412;2023-02-28T13:13:19;9.27;;;7.78;;
8349;SDS011;60699;48.946;8.412;2023-02-28T13:18:30;9.65;;;7.20;;
8349;SDS011;60699;48.946;8.412;2023-02-28T13:20:57;11.82;;;6.55;;
8349;SDS011;60699;48.946;8.412;2023-02-28T13:23:38;10.68;;;7.65;;
8349;SDS011;60699;48.946;8.412;2023-02-28T13:26:05;9.15;;;7.20;;
8349;SDS011;60699;48.946;8.412;2023-02-28T13:31:27;7.53;;;6.80;;
8349;SDS011;60699;48.946;8.412;2023-02-28T13:34:13;9.85;;;7.00;;
8349;SDS011;60699;48.946;8.412;2023-02-28T13:36:40;10.43;;;8.52;;
8349;SDS011;60699;48.946;8.412;2023-02-28T13:41:51;10.43;;;7.50;;
8349;SDS011;60699;48.946;8.412;2023-02-28T13:44:19;11.25;;;7.50;;
8349;SDS011;60699;48.946;8.412;2023-02-28T13:49:34;12.48;;;7.90;;
8349;SDS011;60699;48.946;8.412;2023-02-28T13:52:02;8.65;;;7.45;;
8349;SDS011;60699;48.946;8.412;2023-02-28T13:54:36;9.63;;;7.20;;
8349;SDS011;60699;48.946;8.412;2023-02-28T13:57:11;9.25;;;7.75;;
8349;SDS011;60699;48.946;8.412;2023-02-28T13:59:51;10.88;;;7.82;;
8349;SDS011;60699;48.946;8.412;2023-02-28T14:02:37;12.48;;;7.60;;
8349;SDS011;60699;48.946;8.412;2023-02-28T14:05:11;11.07;;;7.00;;
8349;SDS011;60699;48.946;8.412;2023-02-28T14:07:41;13.20;;;8.05;;
8349;SDS011;60699;48.946;8.412;2023-02-28T14:10:15;13.65;;;8.75;;
8349;SDS011;60699;48.946;8.412;2023-02-28T14:12:59;8.65;;;7.75;;
8349;SDS011;60699;48.946;8.412;2023-02-28T14:15:30;13.50;;;8.38;;
8349;SDS011;60699;48.946;8.412;2023-02-28T14:18:01;12.55;;;10.02;;
8349;SDS011;60699;48.946;8.412;2023-02-28T14:20:29;11.63;;;8.20;;
8349;SDS011;60699;48.946;8.412;2023-02-28T14:22:58;11.40;;;8.30;;
8349;SDS011;60699;48.946;8.412;2023-02-28T14:25:30;12.23;;;8.55;;
8349;SDS011;60699;48.946;8.412;2023-02-28T14:28:01;11.98;;;8.35;;
8349;SDS011;60699;48.946;8.412;2023-02-28T14:33:23;11.52;;;9.05;;
8349;SDS011;60699;48.946;8.412;2023-02-28T14:35:59;10.10;;;8.85;;
8349;SDS011;60699;48.946;8.412;2023-02-28T14:38:27;9.30;;;7.40;;
8349;SDS011;60699;48.946;8.412;2023-02-28T14:40:56;12.35;;;8.35;;
8349;SDS011;60699;48.946;8.412;2023-02-28T14:43:26;9.32;;;8.32;;
8349;SDS011;60699;48.946;8.412;2023-02-28T14:45:54;12.98;;;8.20;;
8349;SDS011;60699;48.946;8.412;2023-02-28T14:48:22;10.27;;;8.48;;
8349;SDS011;60699;48.946;8.412;2023-02-28T14:50:51;9.00;;;8.10;;
8349;SDS011;60699;48.946;8.412;2023-02-28T14:53:18;12.85;;;9.02;;
8349;SDS011;60699;48.946;8.412;2023-02-28T14:55:47;11.38;;;8.57;;
8349;SDS011;60699;48.946;8.412;2023-02-28T14:58:20;9.20;;;7.70;;
8349;SDS011;60699;48.946;8.412;2023-02-28T15:00:49;12.82;;;9.10;;
8349;SDS011;60699;48.946;8.412;2023-02-28T15:03:18;11.85;;;7.85;;
8349;SDS011;60699;48.946;8.412;2023-02-28T15:05:51;12.15;;;9.02;;
8349;SDS011;60699;48.946;8.412;2023-02-28T15:08:18;16.20;;;8.50;;
8349;SDS011;60699;48.946;8.412;2023-02-28T15:10:49;9.02;;;8.13;;
8349;SDS011;60699;48.946;8.412;2023-02-28T15:13:18;11.55;;;8.82;;
8349;SDS011;60699;48.946;8.412;2023-02-28T15:15:46;8.55;;;7.65;;
8349;SDS011;60699;48.946;8.412;2023-02-28T15:18:18;10.35;;;8.50;;
8349;SDS011;60699;48.946;8.412;2023-02-28T15:20:48;14.25;;;8.60;;
8349;SDS011;60699;48.946;8.412;2023-02-28T15:23:15;11.05;;;8.40;;
8349;SDS011;60699;48.946;8.412;2023-02-28T15:25:43;11.23;;;7.97;;
8349;SDS011;60699;48.946;8.412;2023-02-28T15:28:12;10.27;;;9.00;;
8349;SDS011;60699;48.946;8.412;2023-02-28T15:30:49;10.35;;;8.63;;
8349;SDS011;60699;48.946;8.412;2023-02-28T15:33:21;11.48;;;9.63;;
8349;SDS011;60699;48.946;8.412;2023-02-28T15:35:49;11.48;;;8.70;;
8349;SDS011;60699;48.946;8.412;2023-02-28T15:38:17;12.20;;;9.13;;